sensor_id;sensor_type;location;lat;lon;timestamp;P1;durP1;ratioP1;P2;durP2;ratioP2
71902;SDS011;59778;50.310;18.780;2022-11-20T00:07:58;174.43;;;54.10;;
71902;SDS011;59778;50.310;18.780;2022-11-20T00:23:20;172.20;;;56.50;;
71902;SDS011;59778;50.310;18.780;2022-11-20T00:38:41;176.57;;;56.90;;
71902;SDS011;59778;50.310;18.780;2022-11-20T00:54:03;153.77;;;51.03;;
71902;SDS011;59778;50.310;18.780;2022-11-20T01:09:24;127.10;;;41.67;;
71902;SDS011;59778;50.310;18.780;2022-11-20T01:24:45;123.67;;;42.40;;
71902;SDS011;59778;50.310;18.780;2022-11-20T01:40:06;104.27;;;37.77;;
71902;SDS011;59778;50.310;18.780;2022-11-20T01:55:29;101.00;;;37.30;;
71902;SDS011;59778;50.310;18.780;2022-11-20T02:10:53;95.47;;;36.10;;
71902;SDS011;59778;50.310;18.780;2022-11-20T02:26:14;97.93;;;36.10;;
71902;SDS011;59778;50.310;18.780;2022-11-20T02:41:37;135.23;;;49.20;;
71902;SDS011;59778;50.310;18.780;2022-11-20T02:56:59;124.30;;;44.67;;
71902;SDS011;59778;50.310;18.780;2022-11-20T03:12:20;118.17;;;40.83;;
71902;SDS011;59778;50.310;18.780;2022-11-20T03:27:41;118.90;;;40.53;;
71902;SDS011;59778;50.310;18.780;2022-11-20T03:43:02;136.33;;;48.67;;
71902;SDS011;59778;50.310;18.780;2022-11-20T03:58:23;129.63;;;45.27;;
71902;SDS011;59778;50.310;18.780;2022-11-20T04:13:49;127.57;;;45.67;;
71902;SDS011;59778;50.310;18.780;2022-11-20T04:29:21;130.57;;;46.07;;
71902;SDS011;59778;50.310;18.780;2022-11-20T04:44:42;129.10;;;44.10;;
71902;SDS011;59778;50.310;18.780;2022-11-20T05:00:03;118.40;;;38.83;;
71902;SDS011;59778;50.310;18.780;2022-11-20T05:15:25;111.67;;;40.20;;
71902;SDS011;59778;50.310;18.780;2022-11-20T05:30:46;125.83;;;43.70;;
71902;SDS011;59778;50.310;18.780;2022-11-20T05:46:08;115.60;;;41.40;;
71902;SDS011;59778;50.310;18.780;2022-11-20T06:01:30;113.03;;;39.83;;
71902;SDS011;59778;50.310;18.780;2022-11-20T06:16:51;123.37;;;42.23;;
71902;SDS011;59778;50.310;18.780;2022-11-20T06:32:13;115.33;;;42.57;;
71902;SDS011;59778;50.310;18.780;2022-11-20T06:47:34;115.33;;;40.90;;
71902;SDS011;59778;50.310;18.780;2022-11-20T07:02:55;120.50;;;45.93;;
71902;SDS011;59778;50.310;18.780;2022-11-20T07:18:16;145.23;;;49.73;;
71902;SDS011;59778;50.310;18.780;2022-11-20T07:33:37;193.77;;;67.77;;
71902;SDS011;59778;50.310;18.780;2022-11-20T07:48:58;281.30;;;107.97;;
71902;SDS011;59778;50.310;18.780;2022-11-20T08:04:20;211.03;;;79.83;;
71902;SDS011;59778;50.310;18.780;2022-11-20T08:19:41;168.87;;;68.83;;
71902;SDS011;59778;50.310;18.780;2022-11-20T08:35:02;142.80;;;57.73;;
71902;SDS011;59778;50.310;18.780;2022-11-20T08:50:24;142.63;;;53.40;;
71902;SDS011;59778;50.310;18.780;2022-11-20T09:05:46;121.83;;;49.90;;
71902;SDS011;59778;50.310;18.780;2022-11-20T09:21:10;134.60;;;50.80;;
71902;SDS011;59778;50.310;18.780;2022-11-20T09:36:33;117.07;;;44.47;;
71902;SDS011;59778;50.310;18.780;2022-11-20T10:07:21;80.87;;;31.43;;
71902;SDS011;59778;50.310;18.780;2022-11-20T10:23:02;96.67;;;37.27;;
71902;SDS011;59778;50.310;18.780;2022-11-20T10:38:47;83.60;;;35.10;;
71902;SDS011;59778;50.310;18.780;2022-11-20T10:54:28;63.83;;;24.70;;
71902;SDS011;59778;50.310;18.780;2022-11-20T11:10:13;53.33;;;22.30;;
71902;SDS011;59778;50.310;18.780;2022-11-20T11:25:55;53.10;;;20.17;;
71902;SDS011;59778;50.310;18.780;2022-11-20T11:41:20;70.23;;;27.27;;
71902;SDS011;59778;50.310;18.780;2022-11-20T11:56:44;71.93;;;28.87;;
71902;SDS011;59778;50.310;18.780;2022-11-20T12:12:10;78.73;;;30.37;;
71902;SDS011;59778;50.310;18.780;2022-11-20T12:27:43;70.80;;;28.67;;
71902;SDS011;59778;50.310;18.780;2022-11-20T12:43:26;60.17;;;27.00;;
71902;SDS011;59778;50.310;18.780;2022-11-20T12:59:21;78.80;;;32.30;;
71902;SDS011;59778;50.310;18.780;2022-11-20T13:15:53;83.40;;;33.20;;
71902;SDS011;59778;50.310;18.780;2022-11-20T13:30:57;66.33;;;28.63;;
71902;SDS011;59778;50.310;18.780;2022-11-20T13:46:19;70.33;;;26.30;;
71902;SDS011;59778;50.310;18.780;2022-11-20T14:01:45;76.43;;;29.37;;
71902;SDS011;59778;50.310;18.780;2022-11-20T14:17:08;64.67;;;26.20;;
71902;SDS011;59778;50.310;18.780;2022-11-20T14:32:37;63.37;;;25.50;;
71902;SDS011;59778;50.310;18.780;2022-11-20T14:47:58;71.50;;;26.83;;
71902;SDS011;59778;50.310;18.780;2022-11-20T15:03:20;50.30;;;21.43;;
71902;SDS011;59778;50.310;18.780;2022-11-20T15:18:41;62.20;;;23.50;;
71902;SDS011;59778;50.310;18.780;2022-11-20T15:34:02;64.73;;;25.33;;
71902;SDS011;59778;50.310;18.780;2022-11-20T15:49:27;63.87;;;22.57;;
71902;SDS011;59778;50.310;18.780;2022-11-20T16:04:51;58.40;;;23.33;;
71902;SDS011;59778;50.310;18.780;2022-11-20T16:20:12;53.07;;;19.57;;
71902;SDS011;59778;50.310;18.780;2022-11-20T16:35:34;49.90;;;19.60;;
71902;SDS011;59778;50.310;18.780;2022-11-20T16:50:55;54.30;;;21.87;;
71902;SDS011;59778;50.310;18.780;2022-11-20T17:06:17;57.17;;;22.47;;
71902;SDS011;59778;50.310;18.780;2022-11-20T17:21:39;74.13;;;28.43;;
71902;SDS011;59778;50.310;18.780;2022-11-20T17:37:01;65.77;;;22.97;;
71902;SDS011;59778;50.310;18.780;2022-11-20T17:52:23;68.53;;;26.87;;
71902;SDS011;59778;50.310;18.780;2022-11-20T18:07:44;73.13;;;28.43;;
71902;SDS011;59778;50.310;18.780;2022-11-20T18:23:05;79.83;;;29.33;;
71902;SDS011;59778;50.310;18.780;2022-11-20T18:38:26;106.50;;;38.10;;
71902;SDS011;59778;50.310;18.780;2022-11-20T18:53:47;89.70;;;35.73;;
71902;SDS011;59778;50.310;18.780;2022-11-20T19:09:09;84.17;;;31.97;;
71902;SDS011;59778;50.310;18.780;2022-11-20T19:24:32;113.83;;;44.47;;
71902;SDS011;59778;50.310;18.780;2022-11-20T19:39:53;187.40;;;63.60;;
71902;SDS011;59778;50.310;18.780;2022-11-20T19:55:18;144.63;;;51.50;;
71902;SDS011;59778;50.310;18.780;2022-11-20T20:10:39;121.10;;;44.20;;
71902;SDS011;59778;50.310;18.780;2022-11-20T20:26:01;126.90;;;44.90;;
71902;SDS011;59778;50.310;18.780;2022-11-20T20:41:23;153.47;;;53.27;;
71902;SDS011;59778;50.310;18.780;2022-11-20T20:56:46;182.73;;;63.40;;
71902;SDS011;59778;50.310;18.780;2022-11-20T21:12:07;207.37;;;72.93;;
71902;SDS011;59778;50.310;18.780;2022-11-20T21:27:28;195.23;;;67.30;;
71902;SDS011;59778;50.310;18.780;2022-11-20T21:42:49;190.57;;;64.60;;
71902;SDS011;59778;50.310;18.780;2022-11-20T21:58:12;176.57;;;60.17;;
71902;SDS011;59778;50.310;18.780;2022-11-20T22:13:33;167.33;;;56.80;;
71902;SDS011;59778;50.310;18.780;2022-11-20T22:29:15;192.97;;;64.37;;
71902;SDS011;59778;50.310;18.780;2022-11-20T22:44:37;201.77;;;64.13;;
71902;SDS011;59778;50.310;18.780;2022-11-20T22:59:58;233.70;;;77.50;;
71902;SDS011;59778;50.310;18.780;2022-11-20T23:15:20;145.77;;;49.50;;
71902;SDS011;59778;50.310;18.780;2022-11-20T23:30:41;196.93;;;68.87;;
71902;SDS011;59778;50.310;18.780;2022-11-20T23:46:02;142.93;;;50.53;;
